Kars, Turkey

6:08 PM +03 on January 17, 2017 (GMT +0300)
Kars | | Change Station

Elev 5886 ft 40.56 °N, 43.12 °E | Updated 18 minutes ago

Partly Cloudy
Partly Cloudy
12 °F
Feels Like 12 °F
N
0
Wind Variable Wind from North

Today
High -- | Low -- °F
--% Chance of Precip.
Yesterday
High -- | Low -- °F
Precip. -- in
Pressure 30.21 in
Visibility 6.2 miles
Clouds Scattered Clouds 3500 ft
Dew Point 7 °F
Humidity 79%
Rainfall 0.00 in
Snow Depth Not available.
7:28 AM 5:07 PM
Waning Gibbous, 72% visible
METAR LTCF 171450Z 00000KT 9999 SCT035 M11/M14 Q1023
Pressure 30.21 in
Visibility 6.2 miles
Clouds Scattered Clouds 3500 ft
Dew Point 7 °F
Humidity 79%
Rainfall 0.00 in
Snow Depth Not available.
7:28 AM 5:07 PM
Waning Gibbous, 72% visible
METAR LTCF 171450Z 00000KT 9999 SCT035 M11/M14 Q1023

Get Your Daily Forecast Email!

Thanks for signing up!

Be on the lookout for a verification email in your inbox.

You'll start receiving the daily forecast at 8 AM.

×

10-Day Weather Forecast

×

Almanac

Astronomy

Jan. 17, 2017 Rise Set
Actual Time
Civil Twilight
Nautical Twilight
Astronomical Twilight
Moon
Length of Visible Light
Length of Day
Tomorrow will be .
, % of the Moon is Illuminated

Today's Extremes

Country Highs Country Lows

Community

WunderPhotos

Upload Photos

1,962,540 photos uploaded!

WunderBlog® & News

Nearby

Air Quality

  Air Quality AQ Index Pollutant
Not available.

Snow Depth

Station Depth Elevation

Earthquake Activity

City Distance Mag. Time & Date
Minimum magnitude displayed is 2.5.

Coastal Water Temperatures

Place Temperature

Stations

Nearby Weather Stations

Station Location Temp. Windchill Dew Point Humidity Wind Precip. Elev Updated Type